createdAt,value
2019-05-16T00:01:40.604Z,23.45
2019-05-16T00:20:59.113Z,25.35
2019-05-16T00:24:48.725Z,20.80
2019-05-16T00:31:21.340Z,22.37
2019-05-16T00:34:49.116Z,20.02
2019-05-16T00:38:15.344Z,20.62
2019-05-16T00:41:55.071Z,17.60
2019-05-16T00:44:50.727Z,22.25
2019-05-16T00:47:58.707Z,21.20
2019-05-16T00:50:52.545Z,23.45
2019-05-16T00:53:48.429Z,20.65
2019-05-16T00:56:44.133Z,21.82
2019-05-16T00:59:41.132Z,25.97
2019-05-16T01:03:10.277Z,21.15
2019-05-16T01:06:22.630Z,32.48
2019-05-16T01:09:18.691Z,19.35
2019-05-16T01:12:12.973Z,25.57
2019-05-16T01:15:10.898Z,25.50
2019-05-16T01:18:08.455Z,22.82
2019-05-16T01:21:08.156Z,22.67
2019-05-16T01:24:05.190Z,28.42
2019-05-16T01:27:00.965Z,19.80
2019-05-16T01:30:04.369Z,29.98
2019-05-16T01:33:12.901Z,27.45
2019-05-16T01:36:15.127Z,22.05
2019-05-16T01:39:15.512Z,24.45
2019-05-16T01:42:18.430Z,26.70
2019-05-16T01:45:21.903Z,26.95
2019-05-16T01:48:22.726Z,22.10
2019-05-16T01:51:22.421Z,29.85
2019-05-16T01:54:19.911Z,25.75
2019-05-16T01:57:41.273Z,24.40
2019-05-16T02:00:49.888Z,26.12
2019-05-16T02:03:40.921Z,24.23
2019-05-16T02:07:03.929Z,20.92
2019-05-16T02:11:48.075Z,22.35
2019-05-16T02:14:11.814Z,25.90
2019-05-16T02:17:28.907Z,27.17
2019-05-16T02:20:30.927Z,20.95
2019-05-16T02:23:58.373Z,26.97
2019-05-16T02:26:54.419Z,24.32
2019-05-16T02:30:00.002Z,24.25
2019-05-16T02:33:02.979Z,26.80
2019-05-16T02:36:01.501Z,23.07
2019-05-16T02:39:21.169Z,28.32
2019-05-16T02:42:45.809Z,30.40
2019-05-16T02:45:55.179Z,22.07
2019-05-16T02:48:53.351Z,26.77
2019-05-16T02:51:51.097Z,25.75
2019-05-16T02:55:13.481Z,27.87
2019-05-16T02:58:26.035Z,27.37
2019-05-16T03:01:33.485Z,32.23
2019-05-16T03:04:30.070Z,29.25
2019-05-16T03:07:37.717Z,27.95
2019-05-16T03:10:55.904Z,29.50
2019-05-16T03:13:52.256Z,32.83
2019-05-16T03:16:55.606Z,38.50
2019-05-16T03:19:53.723Z,29.25
2019-05-16T03:23:06.436Z,35.28
2019-05-16T03:26:07.372Z,31.00
2019-05-16T03:29:04.322Z,37.63
2019-05-16T03:32:16.706Z,30.75
2019-05-16T03:39:02.658Z,40.05
2019-05-16T03:42:13.921Z,31.02
2019-05-16T03:45:10.877Z,48.68
2019-05-16T03:48:07.149Z,48.30
2019-05-16T03:51:07.312Z,47.90
2019-05-16T03:54:03.404Z,48.63
2019-05-16T03:57:00.494Z,46.77
2019-05-16T04:00:12.347Z,39.45
2019-05-16T04:03:11.397Z,38.75
2019-05-16T04:06:06.716Z,40.50
2019-05-16T04:09:02.637Z,27.42
2019-05-16T04:12:01.543Z,28.85
2019-05-16T04:14:55.986Z,37.48
2019-05-16T04:17:51.425Z,35.40
2019-05-16T04:20:47.344Z,31.12
2019-05-16T04:23:50.584Z,30.10
2019-05-16T04:27:04.307Z,28.62
2019-05-16T04:30:02.888Z,25.00
2019-05-16T04:33:06.418Z,28.80
2019-05-16T04:36:04.996Z,31.10
2019-05-16T04:39:02.477Z,26.62
2019-05-16T04:42:01.517Z,30.50
2019-05-16T04:44:56.298Z,33.23
2019-05-16T04:47:54.969Z,31.62
2019-05-16T04:50:51.863Z,33.78
2019-05-16T04:53:50.949Z,30.92
2019-05-16T04:56:46.072Z,29.75
2019-05-16T04:59:42.348Z,25.20
2019-05-16T05:02:41.820Z,30.92
2019-05-16T05:05:41.247Z,29.87
2019-05-16T05:08:50.428Z,29.63
2019-05-16T05:11:34.844Z,26.48
2019-05-16T05:14:31.213Z,25.45
2019-05-16T05:17:31.540Z,28.65
2019-05-16T05:20:35.347Z,33.45
2019-05-16T05:23:31.522Z,24.60
2019-05-16T05:26:30.806Z,39.05
2019-05-16T05:29:30.708Z,28.10
2019-05-16T05:33:03.292Z,29.25
2019-05-16T05:35:56.888Z,30.92
2019-05-16T05:39:10.916Z,42.53
2019-05-16T05:45:53.611Z,37.28
2019-05-16T05:48:52.145Z,38.92
2019-05-16T05:52:02.662Z,33.98
2019-05-16T05:55:01.946Z,40.33
2019-05-16T05:59:01.386Z,36.23
2019-05-16T06:12:34.926Z,36.50
2019-05-16T06:16:16.433Z,28.98
2019-05-16T06:19:49.932Z,32.83
2019-05-16T06:25:22.528Z,34.00
2019-05-16T06:27:41.199Z,33.50
2019-05-16T06:32:33.836Z,30.57
2019-05-16T06:34:31.834Z,30.92
2019-05-16T06:37:54.490Z,24.90
2019-05-16T06:40:52.996Z,27.62
2019-05-16T06:44:50.315Z,31.00
2019-05-16T06:48:14.312Z,23.77
2019-05-16T06:55:00.686Z,29.10
2019-05-16T06:58:45.617Z,32.65
2019-05-16T07:01:49.850Z,38.53
2019-05-16T07:04:57.706Z,26.97
2019-05-16T07:08:15.808Z,30.20
2019-05-16T07:11:52.678Z,30.48
2019-05-16T07:23:16.027Z,32.17
2019-05-16T07:26:20.554Z,30.32
2019-05-16T07:30:19.977Z,33.88
2019-05-16T07:33:23.831Z,32.40
2019-05-16T07:36:20.898Z,31.07
2019-05-16T07:39:14.135Z,30.77
2019-05-16T07:42:41.202Z,30.92
2019-05-16T07:45:31.784Z,35.23
2019-05-16T07:48:26.686Z,33.30
2019-05-16T07:51:30.845Z,35.68
2019-05-16T07:54:34.081Z,32.50
2019-05-16T07:57:33.935Z,30.08
2019-05-16T08:01:02.763Z,32.00
2019-05-16T08:03:52.681Z,35.70
2019-05-16T08:06:50.919Z,33.95
2019-05-16T08:09:50.479Z,33.13
2019-05-16T08:12:51.483Z,31.23
2019-05-16T08:15:51.557Z,28.45
2019-05-16T08:19:00.852Z,26.17
2019-05-16T08:22:01.233Z,26.77
2019-05-16T08:25:36.577Z,32.08
2019-05-16T08:28:41.207Z,25.48
2019-05-16T08:31:52.808Z,27.32
2019-05-16T08:35:00.831Z,29.55
2019-05-16T08:38:30.872Z,33.13
2019-05-16T08:41:31.515Z,28.57
2019-05-16T08:44:31.702Z,16.35
2019-05-16T08:47:31.820Z,26.80
2019-05-16T08:50:26.057Z,23.10
2019-05-16T08:53:26.964Z,21.05
2019-05-16T08:56:34.984Z,23.98
2019-05-16T08:59:41.049Z,21.40
2019-05-16T09:02:46.034Z,22.80
2019-05-16T09:06:22.512Z,20.15
2019-05-16T09:12:17.314Z,20.37
2019-05-16T09:15:13.714Z,17.55
2019-05-16T09:18:09.310Z,17.92
2019-05-16T09:21:07.460Z,22.07
2019-05-16T09:24:06.716Z,15.53
2019-05-16T09:27:21.467Z,17.25
2019-05-16T09:30:19.695Z,19.42
2019-05-16T09:33:18.339Z,19.90
2019-05-16T09:36:13.802Z,19.65
2019-05-16T09:39:12.220Z,13.55
2019-05-16T09:42:12.557Z,15.83
2019-05-16T09:45:12.076Z,15.45
2019-05-16T09:48:11.915Z,17.23
2019-05-16T09:52:01.608Z,19.67
2019-05-16T09:54:16.791Z,19.05
2019-05-16T09:57:27.986Z,17.60
2019-05-16T10:00:38.094Z,20.37
2019-05-16T10:05:03.060Z,21.55
2019-05-16T10:07:38.911Z,20.02
2019-05-16T10:10:36.959Z,23.20
2019-05-16T10:13:37.725Z,22.30
2019-05-16T10:16:37.400Z,18.90
2019-05-16T10:19:36.792Z,16.50
2019-05-16T10:22:38.179Z,22.60
2019-05-16T10:25:58.261Z,23.95
2019-05-16T10:28:42.018Z,25.23
2019-05-16T10:31:48.576Z,22.00
2019-05-16T10:34:38.161Z,26.02
2019-05-16T10:38:14.940Z,25.70
2019-05-16T10:40:40.270Z,24.92
2019-05-16T10:43:37.051Z,26.60
2019-05-16T10:46:47.776Z,23.57
2019-05-16T10:49:41.923Z,29.12
2019-05-16T10:52:40.340Z,22.05
2019-05-16T10:55:40.721Z,19.10
2019-05-16T10:59:10.649Z,21.45
2019-05-16T11:01:43.981Z,23.65
2019-05-16T11:04:57.430Z,25.92
2019-05-16T11:07:48.532Z,24.30
2019-05-16T11:10:57.108Z,22.45
2019-05-16T11:13:53.243Z,24.12
2019-05-16T11:16:54.507Z,21.40
2019-05-16T11:19:58.109Z,24.18
2019-05-16T11:22:58.675Z,22.22
2019-05-16T11:26:03.632Z,28.40
2019-05-16T11:29:07.683Z,27.62
2019-05-16T11:32:07.907Z,24.20
2019-05-16T11:35:12.101Z,27.27
2019-05-16T11:38:18.210Z,27.75
2019-05-16T11:41:13.111Z,27.60
2019-05-16T11:44:10.252Z,21.23
2019-05-16T11:47:24.462Z,26.65
2019-05-16T11:50:17.589Z,21.23
2019-05-16T11:53:12.264Z,26.50
2019-05-16T11:56:09.919Z,24.55
2019-05-16T11:59:07.946Z,23.27
2019-05-16T12:02:09.127Z,15.93
2019-05-16T12:05:06.255Z,24.70
2019-05-16T12:08:01.673Z,21.42
2019-05-16T12:10:57.923Z,32.10
2019-05-16T12:13:57.601Z,21.62
2019-05-16T12:17:00.757Z,26.85
2019-05-16T12:20:02.402Z,29.25
2019-05-16T12:23:11.360Z,21.30
2019-05-16T12:26:18.052Z,21.68
2019-05-16T12:29:18.544Z,24.98
2019-05-16T12:32:14.400Z,21.95
2019-05-16T12:35:13.083Z,22.35
2019-05-16T12:38:09.684Z,24.35
2019-05-16T12:41:07.136Z,23.62
2019-05-16T12:44:04.473Z,24.50
2019-05-16T12:47:02.865Z,23.85
2019-05-16T12:50:00.093Z,26.07
2019-05-16T12:52:56.911Z,26.35
2019-05-16T12:55:52.272Z,25.82
2019-05-16T12:58:56.728Z,25.23
2019-05-16T13:01:48.132Z,28.65
2019-05-16T13:04:42.268Z,28.55
2019-05-16T13:07:37.757Z,29.07
2019-05-16T13:10:32.037Z,29.07
2019-05-16T13:13:30.249Z,24.40
2019-05-16T13:16:28.244Z,26.52
2019-05-16T13:19:32.810Z,29.98
2019-05-16T13:22:24.121Z,25.27
2019-05-16T13:25:21.825Z,35.80
2019-05-16T13:28:19.178Z,27.93
2019-05-16T13:31:17.102Z,30.05
2019-05-16T13:34:17.739Z,31.27
2019-05-16T13:37:17.575Z,30.05
2019-05-16T13:40:13.727Z,26.85
2019-05-16T13:43:12.617Z,23.73
2019-05-16T13:46:09.801Z,24.10
2019-05-16T13:49:07.655Z,28.30
2019-05-16T13:52:07.245Z,27.05
2019-05-16T13:55:03.040Z,27.27
2019-05-16T13:57:58.860Z,30.20
2019-05-16T14:00:57.001Z,27.37
2019-05-16T14:03:50.183Z,25.50
2019-05-16T14:06:47.520Z,27.40
2019-05-16T14:09:53.358Z,34.53
2019-05-16T14:12:50.323Z,27.73
2019-05-16T14:15:47.351Z,25.45
2019-05-16T14:18:41.691Z,31.17
2019-05-16T14:21:40.365Z,28.47
2019-05-16T14:24:37.456Z,32.05
2019-05-16T14:27:33.468Z,27.85
2019-05-16T14:30:31.769Z,33.58
2019-05-16T14:33:27.753Z,35.10
2019-05-16T14:36:27.323Z,30.82
2019-05-16T14:39:28.091Z,32.93
2019-05-16T14:42:23.498Z,33.00
2019-05-16T14:45:22.978Z,30.25
2019-05-16T14:48:18.754Z,33.75
2019-05-16T14:51:13.631Z,27.02
2019-05-16T14:54:09.412Z,28.05
2019-05-16T14:57:05.317Z,34.78
2019-05-16T15:00:01.341Z,32.83
2019-05-16T15:02:57.559Z,28.45
2019-05-16T15:05:55.361Z,29.57
2019-05-16T15:08:49.934Z,33.05
2019-05-16T15:11:45.537Z,31.20
2019-05-16T15:14:41.022Z,27.95
2019-05-16T15:17:36.651Z,34.50
2019-05-16T15:20:32.179Z,28.67
2019-05-16T15:23:28.460Z,29.65
2019-05-16T15:26:23.517Z,30.35
2019-05-16T15:29:19.381Z,34.23
2019-05-16T15:32:14.579Z,31.85
2019-05-16T15:35:12.449Z,40.28
2019-05-16T15:38:08.753Z,32.03
2019-05-16T15:41:04.618Z,33.50
2019-05-16T15:43:59.985Z,35.83
2019-05-16T15:46:59.926Z,32.10
2019-05-16T15:49:56.569Z,35.33
2019-05-16T15:52:51.602Z,30.48
2019-05-16T15:55:48.265Z,29.37
2019-05-16T15:58:46.692Z,33.70
2019-05-16T16:01:43.165Z,31.27
2019-05-16T16:04:39.672Z,24.98
2019-05-16T16:07:38.026Z,30.75
2019-05-16T16:10:41.904Z,27.42
2019-05-16T16:13:38.715Z,28.20
2019-05-16T16:16:35.357Z,31.95
2019-05-16T16:19:32.601Z,28.12
2019-05-16T16:22:29.644Z,30.35
2019-05-16T16:25:26.833Z,26.87
2019-05-16T16:28:27.130Z,28.47
2019-05-16T16:31:21.968Z,27.55
2019-05-16T16:34:17.785Z,28.27
2019-05-16T16:37:14.019Z,31.20
2019-05-16T16:40:12.110Z,29.85
2019-05-16T16:43:09.389Z,27.48
2019-05-16T16:46:12.550Z,39.45
2019-05-16T16:49:07.344Z,29.82
2019-05-16T16:52:03.510Z,28.15
2019-05-16T16:55:00.245Z,27.05
2019-05-16T16:57:59.643Z,29.90
2019-05-16T17:00:56.469Z,28.83
2019-05-16T17:03:57.589Z,28.40
2019-05-16T17:06:53.262Z,25.90
2019-05-16T17:09:49.270Z,28.62
2019-05-16T17:12:46.694Z,29.05
2019-05-16T17:15:42.553Z,26.90
2019-05-16T17:18:37.481Z,27.07
2019-05-16T17:21:36.664Z,30.50
2019-05-16T17:24:32.423Z,24.07
2019-05-16T17:27:29.345Z,24.92
2019-05-16T17:30:30.538Z,27.87
2019-05-16T17:33:28.566Z,28.55
2019-05-16T17:36:26.593Z,29.82
2019-05-16T17:39:23.561Z,28.30
2019-05-16T17:42:19.753Z,24.57
2019-05-16T17:45:18.138Z,26.02
2019-05-16T17:48:17.576Z,26.50
2019-05-16T17:51:14.051Z,29.18
2019-05-16T17:54:09.839Z,36.33
2019-05-16T17:57:07.433Z,29.77
2019-05-16T18:00:02.741Z,41.55
2019-05-16T18:02:59.251Z,29.05
2019-05-16T18:05:56.716Z,32.33
2019-05-16T18:08:51.697Z,31.42
2019-05-16T18:11:48.931Z,33.98
2019-05-16T18:14:46.739Z,24.35
2019-05-16T18:17:41.487Z,26.95
2019-05-16T18:20:37.348Z,27.30
2019-05-16T18:23:32.166Z,28.40
2019-05-16T18:26:27.311Z,27.75
2019-05-16T18:29:22.599Z,26.12
2019-05-16T18:32:18.511Z,22.65
2019-05-16T18:35:16.526Z,24.35
2019-05-16T18:38:10.472Z,23.38
2019-05-16T18:41:07.819Z,24.40
2019-05-16T18:44:03.209Z,21.95
2019-05-16T18:47:06.930Z,22.75
2019-05-16T18:49:57.379Z,24.30
2019-05-16T18:52:52.092Z,16.07
2019-05-16T18:55:51.731Z,21.30
2019-05-16T18:58:48.902Z,21.33
2019-05-16T19:01:46.898Z,20.35
2019-05-16T19:04:42.531Z,20.55
2019-05-16T19:07:40.470Z,16.80
2019-05-16T19:10:36.655Z,18.70
2019-05-16T19:13:33.396Z,20.10
2019-05-16T19:16:29.405Z,16.75
2019-05-16T19:19:28.093Z,21.20
2019-05-16T19:22:22.676Z,16.30
2019-05-16T19:25:18.981Z,15.60
2019-05-16T19:28:14.940Z,17.15
2019-05-16T19:31:11.039Z,16.50
2019-05-16T19:34:08.353Z,18.20
2019-05-16T19:37:06.782Z,21.65
2019-05-16T19:40:00.437Z,16.17
2019-05-16T19:42:56.566Z,16.42
2019-05-16T19:45:51.445Z,16.97
2019-05-16T19:48:47.828Z,17.32
2019-05-16T19:51:46.052Z,17.77
2019-05-16T19:54:40.306Z,17.70
2019-05-16T19:57:34.491Z,14.30
2019-05-16T20:00:30.210Z,16.07
2019-05-16T20:03:24.419Z,18.10
2019-05-16T20:06:19.703Z,16.95
2019-05-16T20:09:16.640Z,17.87
2019-05-16T20:12:12.807Z,13.98
2019-05-16T20:15:10.995Z,14.85
2019-05-16T20:18:02.772Z,15.13
2019-05-16T20:20:57.130Z,14.00
2019-05-16T20:23:51.323Z,20.52
2019-05-16T20:26:46.590Z,17.55
2019-05-16T20:29:42.075Z,20.48
2019-05-16T20:32:37.201Z,16.30
2019-05-16T20:35:32.558Z,17.70
2019-05-16T20:38:29.199Z,18.87
2019-05-16T20:41:24.667Z,16.57
2019-05-16T20:44:19.021Z,14.95
2019-05-16T20:47:13.766Z,17.45
2019-05-16T20:50:09.110Z,18.80
2019-05-16T20:53:03.791Z,14.90
2019-05-16T20:55:58.744Z,15.65
2019-05-16T20:58:53.564Z,15.60
2019-05-16T21:01:49.321Z,20.37
2019-05-16T21:04:46.436Z,17.02
2019-05-16T21:07:41.769Z,16.75
2019-05-16T21:10:37.134Z,15.65
2019-05-16T21:13:32.235Z,18.10
2019-05-16T21:16:28.946Z,18.30
2019-05-16T21:19:24.541Z,15.08
2019-05-16T21:22:19.554Z,17.07
2019-05-16T21:25:16.880Z,15.38
2019-05-16T21:28:14.109Z,16.85
2019-05-16T21:31:09.011Z,17.92
2019-05-16T21:34:06.990Z,14.85
2019-05-16T21:37:11.228Z,17.23
2019-05-16T21:39:59.811Z,14.18
2019-05-16T21:42:53.250Z,20.48
2019-05-16T21:45:49.073Z,16.20
2019-05-16T21:48:43.490Z,17.25
2019-05-16T21:51:37.948Z,17.70
2019-05-16T21:54:32.676Z,18.87
2019-05-16T21:57:27.035Z,17.40
2019-05-16T22:00:28.949Z,13.80
2019-05-16T22:03:26.893Z,14.50
2019-05-16T22:06:21.130Z,15.35
2019-05-16T22:09:16.815Z,20.55
2019-05-16T22:12:12.146Z,15.70
2019-05-16T22:15:08.628Z,15.78
2019-05-16T22:18:04.437Z,19.25
2019-05-16T22:20:59.057Z,18.23
2019-05-16T22:23:53.368Z,19.80
2019-05-16T22:26:47.906Z,20.32
2019-05-16T22:29:42.716Z,17.57
2019-05-16T22:32:36.912Z,15.93
2019-05-16T22:35:30.909Z,13.43
2019-05-16T22:38:28.337Z,14.43
2019-05-16T22:41:26.588Z,13.32
2019-05-16T22:44:26.959Z,13.08
2019-05-16T22:47:26.477Z,13.70
2019-05-16T22:50:23.337Z,16.27
2019-05-16T22:53:21.313Z,21.00
2019-05-16T22:56:19.606Z,14.98
2019-05-16T22:59:17.643Z,13.08
2019-05-16T23:02:16.849Z,13.65
2019-05-16T23:05:11.637Z,14.07
2019-05-16T23:08:09.126Z,15.08
2019-05-16T23:11:02.713Z,15.88
2019-05-16T23:13:57.652Z,17.25
2019-05-16T23:16:53.045Z,15.80
2019-05-16T23:19:48.918Z,19.65
2019-05-16T23:22:46.815Z,15.13
2019-05-16T23:25:40.575Z,18.73
2019-05-16T23:28:36.731Z,18.40
2019-05-16T23:31:36.385Z,16.30
2019-05-16T23:34:33.063Z,18.70
2019-05-16T23:37:28.546Z,13.83
2019-05-16T23:40:26.106Z,13.18
2019-05-16T23:43:22.715Z,14.23
2019-05-16T23:46:20.354Z,16.25
2019-05-16T23:49:16.819Z,16.55
2019-05-16T23:52:12.221Z,14.45
2019-05-16T23:55:08.337Z,13.88
2019-05-16T23:58:02.826Z,18.67
